GIELDALOZYSK.PL

START » BAZA FIRM » MOJE DANE

"ARON" Hurtownia Techniczna Błażej Kurzawa

Poznańska 46
63-040 Nowe Miasto nad Wartą

tel. 61-287-41-44
tel. 603-787-820
fax: 61-287-41-44

e-mail: aron_nm@o2.pl
http://aron-lozyska.pl.tl/


Firma ARON to 20 lat doświadczenia w branży łożysk tocznych, wysoka jakość usług i produktów czołowych producentów. Solidny partner dla przemysłu jak i klientów indywidualnych. Zajmujemy się sprzedażą detaliczną i hurtową. Posiadamy wszelkie rodzaje łożysk: od tych najbardziej popularnych do rzadko występujących, od małych gabarytowo do łożysk wielogabarytowych, najprostszych wykorzystywanych w domowych pralkach po łożyska stosowane na statkach.


Aktualna oferta firmy "ARON" Hurtownia Techniczna Błażej Kurzawa

Znaleziono 9783 pozycji:

Sortuj wyniki wg: nazwy | marki | ilości | ceny | daty
Nazwa Marka Ilość Cena Telefon Email Data oferty
TSNA313A SKF 1 do uzgodnienia 61-287-41-44 aron_nm@o2.pl 2018-08-20
22326 KM GPZ 1 do uzgodnienia 61-287-41-44 aron_nm@o2.pl 2018-08-20
67790/67720TYSON USA 3 do uzgodnienia 61-287-41-44 aron_nm@o2.pl 2018-08-20
6014 KG 2 do uzgodnienia 61-287-41-44 aron_nm@o2.pl 2018-08-20
6009 C3 NTN 2 do uzgodnienia 61-287-41-44 aron_nm@o2.pl 2018-08-20
62200 2RS SKF 3 do uzgodnienia 61-287-41-44 aron_nm@o2.pl 2018-08-20
GE 15 ES CX 17 do uzgodnienia 61-287-41-44 aron_nm@o2.pl 2018-08-20
20310 KT C3 FAG 2 do uzgodnienia 61-287-41-44 aron_nm@o2.pl 2018-08-20
NKI20/20 A FAG 4 do uzgodnienia 61-287-41-44 aron_nm@o2.pl 2018-08-20
HM3048 SKF 4 do uzgodnienia 61-287-41-44 aron_nm@o2.pl 2018-08-20
NJ215 FŁT 1 do uzgodnienia 61-287-41-44 aron_nm@o2.pl 2018-08-20
22314 MW33 URB 1 do uzgodnienia 61-287-41-44 aron_nm@o2.pl 2018-08-20
NK37/30 INA 1 do uzgodnienia 61-287-41-44 aron_nm@o2.pl 2018-08-20
NU2216 ZKL 1 do uzgodnienia 61-287-41-44 aron_nm@o2.pl 2018-08-20
3207 2RSTNG NSK 17 do uzgodnienia 61-287-41-44 aron_nm@o2.pl 2018-08-20
24030 CC/C3/W33 SKF 1 do uzgodnienia 61-287-41-44 aron_nm@o2.pl 2018-08-20
3302 ZZ CX 3 do uzgodnienia 61-287-41-44 aron_nm@o2.pl 2018-08-20
RNU2217 M DKF 1 do uzgodnienia 61-287-41-44 aron_nm@o2.pl 2018-08-20
7307 B.TVP.UA FAG 340 do uzgodnienia 61-287-41-44 aron_nm@o2.pl 2018-08-20
6206 RS FŁT 2 do uzgodnienia 61-287-41-44 aron_nm@o2.pl 2018-08-20
11590/11520 TIMKEN 2 do uzgodnienia 61-287-41-44 aron_nm@o2.pl 2018-08-20
NF2207 =12507 GPZ=12507 5 do uzgodnienia 61-287-41-44 aron_nm@o2.pl 2018-08-20
6026 ZKL 1 do uzgodnienia 61-287-41-44 aron_nm@o2.pl 2018-08-20
NJ2215 NA NA 63 do uzgodnienia 61-287-41-44 aron_nm@o2.pl 2018-08-20
H209 RZS 1 do uzgodnienia 61-287-41-44 aron_nm@o2.pl 2018-08-20
1212 BP 2 do uzgodnienia 61-287-41-44 aron_nm@o2.pl 2018-08-20
HJ2218/HJ218 DKF 100 do uzgodnienia 61-287-41-44 aron_nm@o2.pl 2018-08-20
51218 FAG 2 do uzgodnienia 61-287-41-44 aron_nm@o2.pl 2018-08-20
2305 FŁT 27 do uzgodnienia 61-287-41-44 aron_nm@o2.pl 2018-08-20
NU317 SNR 3 do uzgodnienia 61-287-41-44 aron_nm@o2.pl 2018-08-20
52204 (38204) GPZ 1 do uzgodnienia 61-287-41-44 aron_nm@o2.pl 2018-08-20
2218 K ZKL 3 do uzgodnienia 61-287-41-44 aron_nm@o2.pl 2018-08-20
51407 KOYO 28 do uzgodnienia 61-287-41-44 aron_nm@o2.pl 2018-08-20
SK206 NTN 1 do uzgodnienia 61-287-41-44 aron_nm@o2.pl 2018-08-20
30209 AKE 27 do uzgodnienia 61-287-41-44 aron_nm@o2.pl 2018-08-20
2210 2RS / CX/MGK 7 do uzgodnienia 61-287-41-44 aron_nm@o2.pl 2018-08-20
22230 KESTVPBW33 FAG 1 do uzgodnienia 61-287-41-44 aron_nm@o2.pl 2018-08-20
NU409 FAG 2 do uzgodnienia 61-287-41-44 aron_nm@o2.pl 2018-08-20
NU2205 E SKF 1 do uzgodnienia 61-287-41-44 aron_nm@o2.pl 2018-08-20
NU311 NA FRB FRB 1 do uzgodnienia 61-287-41-44 aron_nm@o2.pl 2018-08-20
6316 Z URB 3 do uzgodnienia 61-287-41-44 aron_nm@o2.pl 2018-08-20
6204 ZZ ISB ISB 304 do uzgodnienia 61-287-41-44 aron_nm@o2.pl 2018-08-20
NU2212 C3 NSK 2 do uzgodnienia 61-287-41-44 aron_nm@o2.pl 2018-08-20
53313 SKF 3 do uzgodnienia 61-287-41-44 aron_nm@o2.pl 2018-08-20
61905 2RS CX 5 do uzgodnienia 61-287-41-44 aron_nm@o2.pl 2018-08-20
1203 TV FAG 1 do uzgodnienia 61-287-41-44 aron_nm@o2.pl 2018-08-20
KM10 FAG 3 do uzgodnienia 61-287-41-44 aron_nm@o2.pl 2018-08-20
6315 2RSC3 FŁT 1 do uzgodnienia 61-287-41-44 aron_nm@o2.pl 2018-08-20
HM813836 TIMKEN 3 do uzgodnienia 61-287-41-44 aron_nm@o2.pl 2018-08-20
F-212114.1 INA 1 do uzgodnienia 61-287-41-44 aron_nm@o2.pl 2018-08-20

Sortuj wyniki wg: nazwy | marki | ilości | ceny | daty
O stronie gieldalozysk.pl
Aktualna oferta
Użytkownicy
©2010 gieldalozysk.pl